Time;durP1;ratioP1;P1;durP2;ratioP2;P2;SDS_P1;SDS_P2;PMS_P1;PMS_P2;Temp;Humidity;BMP_temperature;BMP_pressure;BME280_temperature;BME280_humidity;BME280_pressure;Samples;Min_cycle;Max_cycle;Signal;HPM_P1;HPM_P2
2021/10/21 00:00:20;;;;;;;3.40;0.90;;;15.70;83.90;;;;;;5093318;28;20179;-80
2021/10/21 00:02:46;;;;;;;3.77;1.23;;;15.60;83.30;;;;;;5093373;28;20258;-79
2021/10/21 00:05:12;;;;;;;3.07;1.10;;;15.70;86.80;;;;;;5093548;28;20198;-81
2021/10/21 00:07:38;;;;;;;3.10;1.00;;;15.70;90.20;;;;;;5093276;28;20160;-81
2021/10/21 00:10:04;;;;;;;1.83;0.80;;;15.50;91.80;;;;;;5093264;28;20172;-80
2021/10/21 00:12:31;;;;;;;4.93;1.07;;;15.40;91.70;;;;;;5076007;28;20305;-80
2021/10/21 00:14:57;;;;;;;8.53;1.27;;;15.30;91.10;;;;;;5093056;28;20203;-80
2021/10/21 00:17:23;;;;;;;8.90;1.27;;;15.40;90.60;;;;;;5093225;28;20212;-80
2021/10/21 00:19:48;;;;;;;5.93;1.23;;;15.20;90.10;;;;;;5093123;28;20181;-80
2021/10/21 00:22:14;;;;;;;2.30;0.60;;;15.10;90.60;;;;;;5092629;28;20190;-80
2021/10/21 00:24:40;;;;;;;5.57;1.17;;;15.00;89.80;;;;;;5093070;28;20254;-81
2021/10/21 00:27:06;;;;;;;3.17;0.90;;;15.00;91.10;;;;;;5093227;28;20643;-80
2021/10/21 00:29:32;;;;;;;2.93;0.80;;;14.90;93.40;;;;;;5093333;28;20169;-81
2021/10/21 00:31:57;;;;;;;5.57;1.10;;;14.50;94.40;;;;;;5093102;28;20182;-81
2021/10/21 00:34:24;;;;;;;4.30;1.20;;;14.50;94.60;;;;;;5093343;28;20220;-80
2021/10/21 00:36:50;;;;;;;4.73;1.07;;;14.30;92.80;;;;;;5092784;28;20168;-79
2021/10/21 00:39:15;;;;;;;4.33;1.40;;;14.40;91.20;;;;;;5093232;28;20540;-80
2021/10/21 00:41:41;;;;;;;3.73;0.90;;;14.30;91.70;;;;;;5092988;28;20573;-80
2021/10/21 00:44:11;;;;;;;4.70;1.10;;;14.30;90.30;;;;;;5093283;28;20225;-80
2021/10/21 00:46:38;;;;;;;1.87;0.97;;;14.30;89.80;;;;;;5097643;28;20188;-80
2021/10/21 00:49:04;;;;;;;5.67;1.00;;;14.40;87.00;;;;;;5094743;28;20537;-79
2021/10/21 00:51:31;;;;;;;2.97;0.90;;;14.40;86.00;;;;;;5076451;28;20554;-80
2021/10/21 00:53:58;;;;;;;3.63;1.10;;;14.50;87.10;;;;;;5093137;28;20175;-80
2021/10/21 00:56:24;;;;;;;5.03;1.03;;;14.30;90.60;;;;;;5093472;28;20226;-80
2021/10/21 00:58:50;;;;;;;5.03;1.37;;;14.20;93.10;;;;;;5094879;28;20836;-82
2021/10/21 01:01:20;;;;;;;4.77;0.90;;;14.10;94.90;;;;;;5096817;28;20173;-78
2021/10/21 01:03:46;;;;;;;4.33;1.47;;;14.20;96.40;;;;;;5097037;28;20540;-81
2021/10/21 01:06:12;;;;;;;4.23;1.30;;;14.00;98.00;;;;;;5078874;28;20199;-80
2021/10/21 01:08:40;;;;;;;5.87;1.23;;;13.80;99.50;;;;;;5097058;28;20175;-79
2021/10/21 01:11:06;;;;;;;7.30;1.53;;;13.60;99.90;;;;;;5078987;28;20543;-79
2021/10/21 01:13:32;;;;;;;6.97;1.43;;;13.60;99.90;;;;;;5103720;28;20192;-77
2021/10/21 01:16:10;;;;;;;5.23;1.43;;;13.50;99.90;;;;;;5101429;28;20211;-79
2021/10/21 01:18:37;;;;;;;4.37;1.83;;;13.50;99.90;;;;;;5100102;28;20244;-79
2021/10/21 01:21:04;;;;;;;5.23;1.50;;;13.50;99.90;;;;;;5101448;28;20553;-80
2021/10/21 01:23:31;;;;;;;5.57;1.50;;;13.50;99.90;;;;;;5102486;28;20171;-80
2021/10/21 01:25:56;;;;;;;5.80;1.47;;;13.40;99.90;;;;;;5098798;28;20244;-79
2021/10/21 01:28:22;;;;;;;5.30;1.30;;;13.40;99.90;;;;;;5096748;28;20224;-80
2021/10/21 01:30:48;;;;;;;6.80;1.67;;;13.40;99.90;;;;;;5096602;28;20164;-80
2021/10/21 01:33:14;;;;;;;4.97;1.33;;;13.30;99.90;;;;;;5096237;28;20299;-80
2021/10/21 01:35:40;;;;;;;8.67;1.57;;;13.20;99.90;;;;;;5102427;28;20195;-78
2021/10/21 01:38:06;;;;;;;8.27;1.50;;;13.20;99.90;;;;;;5120099;28;20159;-79
2021/10/21 01:40:32;;;;;;;7.73;1.40;;;13.10;99.90;;;;;;5112209;28;20659;-80
2021/10/21 01:42:58;;;;;;;9.00;2.43;;;13.10;99.90;;;;;;5096559;28;20172;-79
2021/10/21 01:45:28;;;;;;;5.77;1.50;;;13.10;99.90;;;;;;5078390;28;20225;-79
2021/10/21 01:47:57;;;;;;;7.87;1.90;;;13.00;99.90;;;;;;5078190;28;20176;-80
2021/10/21 01:50:24;;;;;;;6.37;1.93;;;13.10;99.90;;;;;;5078236;28;20307;-80
2021/10/21 01:52:51;;;;;;;6.80;1.60;;;13.00;99.90;;;;;;5098435;28;20707;-80
2021/10/21 01:55:17;;;;;;;7.30;1.80;;;13.00;99.90;;;;;;5101531;28;20253;-80
2021/10/21 01:57:44;;;;;;;9.50;2.33;;;13.00;99.90;;;;;;5097088;28;20654;-80
2021/10/21 02:00:14;;;;;;;8.47;1.80;;;13.00;99.90;;;;;;5095868;28;20264;-80
2021/10/21 02:02:42;;;;;;;10.20;1.97;;;13.00;99.90;;;;;;5077844;28;20179;-80
2021/10/21 02:05:08;;;;;;;9.53;2.10;;;13.00;99.90;;;;;;5077775;28;20203;-80
2021/10/21 02:07:34;;;;;;;5.83;1.97;;;12.90;99.90;;;;;;5095785;28;20178;-80
2021/10/21 02:10:00;;;;;;;9.67;2.07;;;12.90;99.90;;;;;;5095638;28;20250;-80
2021/10/21 02:12:26;;;;;;;7.47;1.80;;;12.90;99.90;;;;;;5077312;28;20225;-80
2021/10/21 02:14:51;;;;;;;6.20;1.80;;;12.90;99.90;;;;;;5077256;28;20207;-80
2021/10/21 02:17:22;;;;;;;5.63;1.73;;;12.90;99.90;;;;;;5077302;28;20167;-80
2021/10/21 02:19:48;;;;;;;9.43;2.20;;;12.90;99.90;;;;;;5095326;28;20538;-80
2021/10/21 02:22:13;;;;;;;7.73;2.07;;;12.90;99.90;;;;;;5095289;28;20654;-80
2021/10/21 02:24:39;;;;;;;9.40;1.83;;;12.90;99.90;;;;;;5095078;28;20171;-81
2021/10/21 02:27:05;;;;;;;6.57;1.50;;;13.20;99.90;;;;;;5095556;28;20635;-81
2021/10/21 02:29:31;;;;;;;9.87;2.57;;;13.00;99.90;;;;;;5095245;28;20258;-81
2021/10/21 02:31:58;;;;;;;7.77;1.83;;;13.00;99.90;;;;;;5095361;28;20593;-81
2021/10/21 02:34:23;;;;;;;5.40;1.70;;;13.10;99.90;;;;;;5094608;28;20264;-81
2021/10/21 02:36:49;;;;;;;6.70;1.77;;;13.10;99.90;;;;;;5094939;28;20167;-81
2021/10/21 02:39:14;;;;;;;4.83;1.17;;;13.10;99.90;;;;;;5077469;28;20539;-81
2021/10/21 02:41:40;;;;;;;7.20;1.73;;;13.10;99.90;;;;;;5077096;28;20183;-81
2021/10/21 02:44:06;;;;;;;7.93;1.67;;;13.20;99.90;;;;;;5077216;28;20743;-81
2021/10/21 02:46:32;;;;;;;4.87;1.13;;;13.30;99.90;;;;;;5095205;28;20175;-81
2021/10/21 02:48:57;;;;;;;6.90;1.80;;;13.10;99.90;;;;;;5095004;28;20168;-81
2021/10/21 02:51:23;;;;;;;5.20;1.57;;;13.10;99.90;;;;;;5077163;28;20170;-81
2021/10/21 02:53:49;;;;;;;6.83;2.07;;;13.00;99.90;;;;;;5094571;28;20188;-81
2021/10/21 02:56:15;;;;;;;4.30;1.30;;;12.90;99.90;;;;;;5095079;28;20208;-81
2021/10/21 02:58:40;;;;;;;4.87;1.00;;;12.80;99.90;;;;;;5076398;28;20646;-81
2021/10/21 03:01:06;;;;;;;3.33;1.17;;;12.80;99.90;;;;;;5094851;28;20172;-81
2021/10/21 03:03:32;;;;;;;5.00;1.20;;;12.60;99.90;;;;;;5094291;28;20167;-81
2021/10/21 03:05:57;;;;;;;6.07;1.30;;;12.50;99.90;;;;;;5094965;28;20200;-81
2021/10/21 03:08:23;;;;;;;3.47;1.10;;;12.50;99.90;;;;;;5094539;28;20310;-81
2021/10/21 03:10:49;;;;;;;6.13;1.30;;;12.40;99.90;;;;;;5094850;28;20529;-81
2021/10/21 03:13:15;;;;;;;5.80;1.10;;;12.60;99.90;;;;;;5076335;28;20658;-81
2021/10/21 03:15:41;;;;;;;4.07;0.93;;;12.50;99.90;;;;;;5095892;28;20687;-80
2021/10/21 03:18:06;;;;;;;3.93;1.10;;;12.50;99.90;;;;;;5076278;28;20267;-81
2021/10/21 03:20:34;;;;;;;4.47;1.17;;;12.40;99.90;;;;;;5094048;28;20172;-81
2021/10/21 03:23:01;;;;;;;6.47;1.10;;;12.30;99.90;;;;;;5094480;28;20172;-82
2021/10/21 03:25:30;;;;;;;4.77;0.93;;;12.40;99.90;;;;;;5094550;28;20542;-81
2021/10/21 03:27:57;;;;;;;2.47;0.80;;;12.40;99.90;;;;;;5076271;28;20210;-82
2021/10/21 03:30:23;;;;;;;3.40;1.00;;;12.40;99.90;;;;;;5095701;28;20174;-82
2021/10/21 03:32:52;;;;;;;4.23;1.30;;;12.40;99.90;;;;;;5095342;28;20246;-82
2021/10/21 03:35:18;;;;;;;5.33;1.23;;;12.40;99.90;;;;;;5076088;28;20686;-81
2021/10/21 03:37:43;;;;;;;5.37;1.40;;;12.40;99.90;;;;;;5075995;28;20183;-83
2021/10/21 03:40:12;;;;;;;3.90;1.10;;;12.30;99.90;;;;;;5097507;28;20636;-82
2021/10/21 03:42:38;;;;;;;3.73;0.90;;;12.50;99.90;;;;;;5103254;28;20167;-82
2021/10/21 03:45:05;;;;;;;2.57;1.00;;;12.30;99.90;;;;;;5116368;28;20221;-81
2021/10/21 03:47:31;;;;;;;3.03;1.10;;;12.10;99.90;;;;;;5113927;28;20188;-83
2021/10/21 03:49:57;;;;;;;3.77;1.03;;;12.00;99.90;;;;;;5098447;28;20191;-82
2021/10/21 03:52:23;;;;;;;3.53;1.00;;;11.90;99.90;;;;;;5108671;28;20191;-83
2021/10/21 03:54:51;;;;;;;7.30;1.57;;;11.90;99.90;;;;;;5078255;28;20207;-83
2021/10/21 03:57:21;;;;;;;4.23;1.30;;;11.90;99.90;;;;;;5076457;28;20651;-83
2021/10/21 03:59:48;;;;;;;7.77;1.30;;;11.80;99.90;;;;;;5093918;28;20233;-82
2021/10/21 04:02:13;;;;;;;4.93;1.27;;;11.80;99.90;;;;;;5093691;28;20232;-82
2021/10/21 04:04:39;;;;;;;7.93;1.87;;;11.90;99.90;;;;;;5093863;28;20179;-84
2021/10/21 04:07:05;;;;;;;8.40;1.30;;;11.80;99.90;;;;;;5075733;28;20182;-82
2021/10/21 04:09:30;;;;;;;9.33;2.10;;;11.90;99.90;;;;;;5093339;28;20167;-82
2021/10/21 04:11:56;;;;;;;6.77;1.40;;;11.70;99.90;;;;;;5093728;28;20195;-82
2021/10/21 04:14:22;;;;;;;8.47;1.73;;;11.70;99.90;;;;;;5092870;28;20217;-82
2021/10/21 04:16:47;;;;;;;5.90;1.57;;;11.70;99.90;;;;;;5075285;28;20183;-83
2021/10/21 04:19:13;;;;;;;6.00;2.17;;;11.70;99.90;;;;;;5093879;28;20199;-82
2021/10/21 04:21:39;;;;;;;7.87;1.40;;;11.70;99.90;;;;;;5093427;28;20172;-81
2021/10/21 04:24:05;;;;;;;7.63;1.53;;;11.70;99.90;;;;;;5093359;28;20191;-82
2021/10/21 04:26:31;;;;;;;6.20;1.90;;;11.60;99.90;;;;;;5078731;28;20176;-83
2021/10/21 04:28:57;;;;;;;10.67;1.40;;;11.70;99.90;;;;;;5097752;28;20176;-83
2021/10/21 04:31:22;;;;;;;5.60;1.57;;;11.60;99.90;;;;;;5093705;28;20627;-84
2021/10/21 04:33:48;;;;;;;7.00;1.50;;;11.50;99.90;;;;;;5076810;28;20266;-83
2021/10/21 04:36:14;;;;;;;7.70;1.60;;;11.60;99.90;;;;;;5097639;28;20247;-84
2021/10/21 04:38:39;;;;;;;7.30;1.67;;;11.50;99.90;;;;;;5097833;28;20228;-83
2021/10/21 04:41:05;;;;;;;7.37;1.80;;;11.50;99.90;;;;;;5079221;28;20175;-83
2021/10/21 04:43:31;;;;;;;7.97;1.57;;;11.50;99.90;;;;;;5078972;28;20210;-83
2021/10/21 04:45:56;;;;;;;5.97;1.87;;;11.50;99.90;;;;;;5079140;28;20274;-84
2021/10/21 04:48:22;;;;;;;6.27;1.73;;;11.50;99.90;;;;;;5084868;28;20620;-83
2021/10/21 04:50:47;;;;;;;6.90;2.33;;;11.50;99.90;;;;;;5104596;28;20172;-81
2021/10/21 04:53:13;;;;;;;4.83;1.80;;;11.40;99.90;;;;;;5102759;28;20214;-84
2021/10/21 04:55:39;;;;;;;6.77;1.87;;;11.40;99.90;;;;;;5080547;28;20211;-82
2021/10/21 04:58:06;;;;;;;7.17;1.40;;;11.40;99.90;;;;;;5096906;28;20178;-84
2021/10/21 05:00:33;;;;;;;9.57;2.03;;;11.40;99.90;;;;;;5097127;28;20619;-83
2021/10/21 05:03:10;;;;;;;6.67;2.03;;;11.50;99.90;;;;;;5080456;28;20179;-83
2021/10/21 05:05:36;;;;;;;8.20;1.83;;;11.50;99.90;;;;;;5097443;28;20191;-83
2021/10/21 05:08:03;;;;;;;12.23;2.37;;;11.50;99.90;;;;;;5097187;28;20168;-83
2021/10/21 05:10:28;;;;;;;9.57;3.20;;;11.40;99.90;;;;;;5096747;28;20164;-83
2021/10/21 05:12:54;;;;;;;10.27;2.37;;;11.40;99.90;;;;;;5097462;28;20266;-85
2021/10/21 05:15:20;;;;;;;7.20;2.00;;;11.40;99.90;;;;;;5083042;28;20245;-85
2021/10/21 05:17:45;;;;;;;8.17;2.40;;;11.40;99.90;;;;;;5101913;28;20168;-84
2021/10/21 05:20:11;;;;;;;9.23;2.57;;;11.30;99.90;;;;;;5105867;28;20178;-84
2021/10/21 05:22:37;;;;;;;8.60;2.07;;;11.30;99.90;;;;;;5097051;28;20172;-83
2021/10/21 05:25:04;;;;;;;16.63;3.07;;;11.20;99.90;;;;;;5099700;28;20198;-83
2021/10/21 05:27:30;;;;;;;12.87;2.80;;;11.20;99.90;;;;;;5095106;28;20174;-81
2021/10/21 05:30:07;;;;;;;10.73;2.87;;;11.30;99.90;;;;;;5125874;28;20223;-82
2021/10/21 05:32:33;;;;;;;14.10;3.27;;;11.40;99.90;;;;;;5121447;28;20166;-85
2021/10/21 05:34:59;;;;;;;11.30;2.70;;;11.40;99.90;;;;;;5098340;28;20219;-83
2021/10/21 05:37:25;;;;;;;12.97;3.20;;;11.40;99.90;;;;;;5116157;28;20598;-85
2021/10/21 05:39:51;;;;;;;9.77;2.50;;;11.40;99.90;;;;;;5098870;28;20198;-84
2021/10/21 05:42:20;;;;;;;11.23;2.80;;;11.50;99.90;;;;;;5097911;28;20205;-84
2021/10/21 05:44:46;;;;;;;9.57;2.80;;;11.50;99.90;;;;;;5116287;28;20631;-85
2021/10/21 05:47:11;;;;;;;10.03;2.57;;;11.50;99.90;;;;;;5099117;28;20299;-83
2021/10/21 05:49:37;;;;;;;13.47;3.30;;;11.50;99.90;;;;;;5098171;28;20622;-84
2021/10/21 05:52:03;;;;;;;15.23;4.03;;;11.60;99.90;;;;;;5117255;28;20187;-84
2021/10/21 05:54:29;;;;;;;13.40;2.93;;;11.70;99.90;;;;;;5115517;28;20498;-83
2021/10/21 05:56:54;;;;;;;9.83;2.37;;;11.80;99.90;;;;;;5115254;28;20173;-84
2021/10/21 05:59:20;;;;;;;11.00;2.83;;;11.60;99.90;;;;;;5116152;28;20178;-84
2021/10/21 06:01:47;;;;;;;11.20;2.73;;;11.70;99.90;;;;;;5115495;28;20171;-84
2021/10/21 06:04:12;;;;;;;12.67;2.77;;;11.70;99.90;;;;;;5115056;28;20175;-83
2021/10/21 06:06:39;;;;;;;11.10;2.93;;;11.80;99.90;;;;;;5100272;28;20201;-83
2021/10/21 06:09:07;;;;;;;9.00;2.60;;;11.80;99.90;;;;;;5096827;28;20248;-80
2021/10/21 06:11:37;;;;;;;11.27;2.73;;;11.70;99.90;;;;;;5117589;28;20173;-83
2021/10/21 06:14:06;;;;;;;12.10;3.03;;;11.80;99.90;;;;;;5119816;28;20170;-84
2021/10/21 06:16:33;;;;;;;12.13;2.67;;;11.70;99.90;;;;;;5117391;28;20187;-84
2021/10/21 06:18:59;;;;;;;15.00;3.00;;;11.70;99.90;;;;;;5113522;28;20187;-84
2021/10/21 06:21:27;;;;;;;11.37;2.83;;;11.80;99.90;;;;;;5102072;28;20179;-83
2021/10/21 06:23:54;;;;;;;11.77;2.87;;;11.70;99.90;;;;;;5112716;28;20171;-84
2021/10/21 06:26:19;;;;;;;12.50;2.50;;;11.70;99.90;;;;;;5113185;28;20174;-84
2021/10/21 06:28:49;;;;;;;9.00;2.70;;;11.90;99.90;;;;;;5095391;28;20167;-85
2021/10/21 06:31:15;;;;;;;8.93;2.47;;;11.80;99.90;;;;;;5095390;28;20167;-84
2021/10/21 06:33:42;;;;;;;9.57;2.30;;;11.80;99.90;;;;;;5133582;27;20166;-86
2021/10/21 06:36:08;;;;;;;10.90;3.43;;;11.80;99.90;;;;;;5134194;27;20220;-83
2021/10/21 06:38:33;;;;;;;9.70;2.70;;;11.60;99.90;;;;;;5116622;28;20174;-84
2021/10/21 06:40:59;;;;;;;9.37;2.67;;;11.60;99.90;;;;;;5133785;27;20170;-81
2021/10/21 06:43:25;;;;;;;11.17;3.40;;;11.50;99.90;;;;;;5115460;28;20170;-84
2021/10/21 06:45:51;;;;;;;7.93;2.60;;;11.50;99.90;;;;;;5115321;27;20662;-84
2021/10/21 06:48:17;;;;;;;9.43;3.03;;;11.50;99.90;;;;;;5134348;28;20629;-85
2021/10/21 06:50:43;;;;;;;9.90;3.10;;;11.60;99.90;;;;;;5126290;27;20174;-85
2021/10/21 06:53:09;;;;;;;9.80;2.63;;;11.60;99.90;;;;;;5075382;28;1094222;-86
2021/10/21 06:55:34;;;;;;;13.53;2.83;;;11.60;99.90;;;;;;5095666;28;20305;-85
2021/10/21 06:58:00;;;;;;;9.97;2.57;;;11.60;99.90;;;;;;5095935;28;20227;-85
2021/10/21 07:00:27;;;;;;;11.07;2.97;;;11.50;99.90;;;;;;5094164;28;20178;-84
2021/10/21 07:02:54;;;;;;;8.40;2.07;;;11.50;99.90;;;;;;5093899;28;20186;-84
2021/10/21 07:05:26;;;;;;;8.07;2.30;;;11.50;99.90;;;;;;5094264;28;20196;-83
2021/10/21 07:07:52;;;;;;;10.40;2.33;;;11.70;99.90;;;;;;5093943;28;20244;-86
2021/10/21 07:10:18;;;;;;;8.53;2.63;;;11.50;99.90;;;;;;5075605;28;20623;-82
2021/10/21 07:12:46;;;;;;;5.63;1.80;;;11.50;99.90;;;;;;5094149;28;20799;-85
2021/10/21 07:15:15;;;;;;;5.90;2.30;;;11.50;99.90;;;;;;5093531;28;20275;-84
2021/10/21 07:17:41;;;;;;;7.87;2.00;;;11.50;99.90;;;;;;5075599;28;20172;-85
2021/10/21 07:20:08;;;;;;;7.63;2.67;;;11.50;99.90;;;;;;5096091;28;20169;-84
2021/10/21 07:22:34;;;;;;;7.53;2.50;;;11.40;99.90;;;;;;5107177;28;20276;-84
2021/10/21 07:25:00;;;;;;;10.50;2.40;;;11.40;99.90;;;;;;5075828;28;20646;-85
2021/10/21 07:27:26;;;;;;;7.97;2.07;;;11.60;99.90;;;;;;5075250;28;20172;-85
2021/10/21 07:29:54;;;;;;;7.23;2.17;;;11.50;99.90;;;;;;5095000;28;20531;-83
2021/10/21 07:32:20;;;;;;;8.07;2.60;;;11.50;99.90;;;;;;5075937;28;20203;-83
2021/10/21 07:34:45;;;;;;;7.20;2.17;;;11.50;99.90;;;;;;5093861;28;20292;-83
2021/10/21 07:37:12;;;;;;;6.63;2.17;;;11.50;99.90;;;;;;5075174;28;20180;-84
2021/10/21 07:39:39;;;;;;;7.63;1.93;;;11.60;99.90;;;;;;5093935;28;20187;-84
2021/10/21 07:42:11;;;;;;;8.43;2.43;;;11.60;99.90;;;;;;5075385;28;20267;-84
2021/10/21 07:44:46;;;;;;;6.60;1.97;;;11.60;99.90;;;;;;5084306;28;20209;-81
2021/10/21 07:47:12;;;;;;;11.33;2.27;;;11.60;99.90;;;;;;5094845;28;20205;-83
2021/10/21 07:49:38;;;;;;;9.33;2.10;;;11.70;99.90;;;;;;5098703;28;20175;-84
2021/10/21 07:52:04;;;;;;;8.33;1.77;;;11.90;99.90;;;;;;5116952;28;20190;-85
2021/10/21 07:54:36;;;;;;;9.90;1.93;;;11.80;99.60;;;;;;5113304;28;20202;-83
2021/10/21 07:57:06;;;;;;;10.73;2.17;;;11.80;99.30;;;;;;5113631;28;20516;-84
2021/10/21 07:59:34;;;;;;;6.93;2.23;;;11.90;99.10;;;;;;5113790;28;20163;-83
2021/10/21 08:02:00;;;;;;;4.53;1.70;;;11.90;98.50;;;;;;5113590;28;20155;-84
2021/10/21 08:04:30;;;;;;;7.10;1.90;;;11.90;97.50;;;;;;5113327;28;20179;-84
2021/10/21 08:06:57;;;;;;;14.00;2.30;;;12.10;97.30;;;;;;5113995;28;20658;-81
2021/10/21 08:09:26;;;;;;;8.50;1.63;;;12.20;97.10;;;;;;5117649;28;20159;-82
2021/10/21 08:11:53;;;;;;;6.70;2.60;;;12.20;96.60;;;;;;5130821;28;20167;-83
2021/10/21 08:14:19;;;;;;;10.63;2.17;;;12.40;96.50;;;;;;5113123;28;20572;-83
2021/10/21 08:16:47;;;;;;;13.27;2.60;;;12.30;96.30;;;;;;5114341;28;20190;-85
2021/10/21 08:19:14;;;;;;;10.73;2.33;;;12.40;95.30;;;;;;5095281;28;20197;-84
2021/10/21 08:21:40;;;;;;;5.97;1.90;;;12.50;95.60;;;;;;5113420;28;20187;-85
2021/10/21 08:24:09;;;;;;;9.90;2.23;;;12.80;95.90;;;;;;5088732;28;20186;-83
2021/10/21 08:26:38;;;;;;;8.70;2.50;;;12.60;96.00;;;;;;5113988;28;20167;-82
2021/10/21 08:29:03;;;;;;;11.97;2.83;;;12.70;95.90;;;;;;5102614;28;20178;-84
2021/10/21 08:31:30;;;;;;;9.07;2.47;;;13.00;97.00;;;;;;5127029;28;20183;-83
2021/10/21 08:33:55;;;;;;;7.07;2.30;;;13.00;96.40;;;;;;5154177;27;20174;-84
2021/10/21 08:36:23;;;;;;;10.03;2.43;;;13.00;95.70;;;;;;5151292;28;20220;-84
2021/10/21 08:38:51;;;;;;;9.37;2.40;;;12.90;96.50;;;;;;5138749;28;20220;-83
2021/10/21 08:41:25;;;;;;;7.27;2.47;;;12.80;96.80;;;;;;5136290;28;20212;-84
2021/10/21 08:43:53;;;;;;;10.10;2.90;;;13.00;97.60;;;;;;5128045;28;20197;-85
2021/10/21 08:46:27;;;;;;;7.53;2.50;;;12.80;97.50;;;;;;5143053;28;20156;-84
2021/10/21 08:49:03;;;;;;;8.27;1.90;;;12.80;97.80;;;;;;5138736;28;20158;-85
2021/10/21 08:51:33;;;;;;;12.57;3.03;;;12.70;97.90;;;;;;5103104;28;20170;-83
2021/10/21 08:54:04;;;;;;;12.30;2.73;;;12.70;98.20;;;;;;5118699;28;20183;-85
2021/10/21 08:56:31;;;;;;;13.03;2.50;;;12.70;98.20;;;;;;5116658;28;20195;-85
2021/10/21 08:59:00;;;;;;;9.33;3.17;;;12.60;98.30;;;;;;5097642;28;20631;-85
2021/10/21 09:09:34;;;;;;;8.30;2.63;;;13.10;97.00;;;;;;5114921;28;20506;-85
2021/10/21 09:12:10;;;;;;;8.80;2.70;;;13.20;96.40;;;;;;5089887;28;20524;-85
2021/10/21 09:14:48;;;;;;;11.23;2.47;;;13.40;95.00;;;;;;5095775;28;20251;-85
2021/10/21 09:17:18;;;;;;;10.83;3.17;;;13.40;92.90;;;;;;5094014;28;20171;-84
2021/10/21 09:19:45;;;;;;;10.93;2.80;;;13.50;92.50;;;;;;5113688;28;20167;-84
2021/10/21 09:22:27;;;;;;;9.17;2.70;;;13.50;91.70;;;;;;5096276;28;20281;-83
2021/10/21 09:24:55;;;;;;;12.93;3.20;;;13.50;91.90;;;;;;5114189;28;20148;-83
2021/10/21 09:27:26;;;;;;;12.53;2.30;;;13.60;92.20;;;;;;5096225;28;20169;-83
2021/10/21 09:29:56;;;;;;;9.00;2.13;;;13.40;92.10;;;;;;5097286;28;20227;-82
2021/10/21 09:32:31;;;;;;;7.80;2.17;;;13.40;92.30;;;;;;5115472;28;20211;-83
2021/10/21 09:34:59;;;;;;;10.20;2.60;;;13.40;91.40;;;;;;5097302;28;20270;-84
2021/10/21 09:37:31;;;;;;;10.70;2.33;;;13.50;91.00;;;;;;5097373;28;20176;-84
2021/10/21 09:40:07;;;;;;;13.70;2.50;;;13.50;92.00;;;;;;5096873;28;20174;-83
2021/10/21 09:42:37;;;;;;;10.80;3.13;;;13.50;91.70;;;;;;5115557;28;20216;-83
2021/10/21 09:45:14;;;;;;;14.17;2.97;;;13.50;92.10;;;;;;5097661;28;20182;-85
2021/10/21 09:47:49;;;;;;;11.07;2.60;;;13.50;94.60;;;;;;5097366;28;20221;-83
2021/10/21 09:50:32;;;;;;;9.67;2.70;;;13.40;95.70;;;;;;5097133;27;20183;-83
2021/10/21 09:53:28;;;;;;;8.87;2.23;;;13.40;97.60;;;;;;5115970;28;20664;-84
2021/10/21 09:56:00;;;;;;;11.03;3.10;;;13.30;97.90;;;;;;5115650;28;20714;-84
2021/10/21 09:58:40;;;;;;;8.37;3.40;;;13.30;98.80;;;;;;5116158;28;20168;-83
2021/10/21 10:01:12;;;;;;;10.10;2.50;;;13.20;99.80;;;;;;5114697;28;20174;-85
2021/10/21 10:03:50;;;;;;;7.53;2.37;;;13.00;99.80;;;;;;5115069;28;20167;-83
2021/10/21 10:06:17;;;;;;;8.70;2.70;;;13.00;99.90;;;;;;5115186;28;20265;-83
2021/10/21 10:08:44;;;;;;;11.37;2.83;;;12.90;99.90;;;;;;5115111;28;20627;-82
2021/10/21 10:11:19;;;;;;;12.13;3.23;;;12.70;99.90;;;;;;5115012;28;20549;-83
2021/10/21 10:13:47;;;;;;;8.73;2.67;;;12.70;99.90;;;;;;5096288;28;20255;-82
2021/10/21 10:16:13;;;;;;;8.00;3.33;;;12.50;99.90;;;;;;5096566;28;20815;-82
2021/10/21 10:18:44;;;;;;;6.80;2.63;;;12.40;99.90;;;;;;5114232;28;20234;-82
2021/10/21 10:21:22;;;;;;;13.17;2.90;;;12.30;99.90;;;;;;5114889;28;20266;-85
2021/10/21 10:24:05;;;;;;;5.57;1.60;;;12.10;99.90;;;;;;5096701;28;20167;-84
2021/10/21 10:26:53;;;;;;;8.60;2.20;;;11.80;99.90;;;;;;5126501;28;20171;-87
2021/10/21 10:29:32;;;;;;;5.03;1.60;;;11.80;99.90;;;;;;5137762;28;20211;-84
2021/10/21 10:32:06;;;;;;;8.70;1.87;;;11.70;99.90;;;;;;5135158;28;20171;-84
2021/10/21 10:34:35;;;;;;;9.57;2.13;;;11.80;99.90;;;;;;5133038;28;20215;-82
2021/10/21 10:37:19;;;;;;;5.63;1.90;;;11.70;99.90;;;;;;5119306;28;20223;-84
2021/10/21 10:39:57;;;;;;;5.03;1.60;;;11.80;99.90;;;;;;5116364;28;20638;-83
2021/10/21 10:42:32;;;;;;;8.07;2.00;;;11.80;99.90;;;;;;5115331;28;20564;-81
2021/10/21 10:45:09;;;;;;;6.80;1.97;;;11.90;99.90;;;;;;5114163;28;20185;-83
2021/10/21 10:47:47;;;;;;;7.97;2.37;;;11.80;99.90;;;;;;5115744;28;20177;-82
2021/10/21 10:50:16;;;;;;;5.27;1.67;;;11.80;99.90;;;;;;5112209;28;20209;-82
2021/10/21 10:52:46;;;;;;;6.60;1.90;;;11.90;99.90;;;;;;5114177;28;20217;-83
2021/10/21 10:55:44;;;;;;;8.20;1.63;;;11.90;99.90;;;;;;5114318;28;20208;-83
2021/10/21 10:58:15;;;;;;;4.30;1.50;;;11.90;99.90;;;;;;5114753;28;20175;-82
2021/10/21 11:00:53;;;;;;;6.40;1.53;;;11.90;99.90;;;;;;5114261;28;20531;-82
2021/10/21 11:03:32;;;;;;;7.47;1.67;;;12.00;99.90;;;;;;5113486;28;20174;-82
2021/10/21 11:06:04;;;;;;;6.20;1.90;;;12.10;99.90;;;;;;5125647;28;20175;-83
2021/10/21 11:09:05;;;;;;;3.57;1.60;;;12.10;99.90;;;;;;5118741;28;20209;-83
2021/10/21 11:12:00;;;;;;;6.87;2.10;;;12.20;99.90;;;;;;5114307;28;20422;-84
2021/10/21 11:14:43;;;;;;;6.13;1.30;;;12.20;99.90;;;;;;5117384;28;20159;-83
2021/10/21 11:17:47;;;;;;;6.00;1.67;;;12.20;99.90;;;;;;5117074;28;20197;-85
2021/10/21 11:20:28;;;;;;;6.03;1.60;;;12.30;99.90;;;;;;5127562;28;20186;-83
2021/10/21 11:22:54;;;;;;;6.40;1.70;;;12.60;99.90;;;;;;5127475;28;20166;-82
2021/10/21 11:25:24;;;;;;;4.47;1.97;;;12.30;99.90;;;;;;5130134;28;20185;-83
2021/10/21 11:27:52;;;;;;;6.17;1.83;;;12.10;99.90;;;;;;5117759;28;20186;-84
2021/10/21 11:30:25;;;;;;;4.27;1.67;;;12.00;99.90;;;;;;5125352;28;20163;-83
2021/10/21 11:32:57;;;;;;;3.83;1.40;;;11.80;99.90;;;;;;5124670;28;20178;-83
2021/10/21 11:35:27;;;;;;;7.50;1.60;;;11.60;99.90;;;;;;5105907;28;20260;-86
2021/10/21 11:38:01;;;;;;;8.03;1.97;;;11.50;99.90;;;;;;5127664;28;20175;-83
2021/10/21 11:40:39;;;;;;;4.23;1.83;;;11.40;99.90;;;;;;5131871;28;20157;-85
2021/10/21 11:43:05;;;;;;;7.03;2.07;;;11.40;99.90;;;;;;5124871;28;20161;-83
2021/10/21 11:45:35;;;;;;;8.37;2.00;;;11.40;99.90;;;;;;5116116;28;20166;-83
2021/10/21 11:48:10;;;;;;;4.93;1.77;;;11.50;99.90;;;;;;5112720;28;20214;-86
2021/10/21 11:50:40;;;;;;;6.73;1.80;;;11.60;99.90;;;;;;5112051;28;20170;-84
2021/10/21 11:53:07;;;;;;;5.77;1.80;;;11.60;99.90;;;;;;5113139;28;20202;-82
2021/10/21 11:55:33;;;;;;;3.63;1.67;;;11.70;99.90;;;;;;5076022;28;20207;-84
2021/10/21 11:58:19;;;;;;;6.73;1.77;;;11.90;99.90;;;;;;5094746;28;20168;-82
2021/10/21 12:00:49;;;;;;;5.63;1.50;;;11.90;99.90;;;;;;5077289;28;20179;-85
2021/10/21 12:03:16;;;;;;;8.53;1.50;;;11.90;98.70;;;;;;5094582;28;20174;-84
2021/10/21 12:05:43;;;;;;;6.47;1.50;;;11.90;98.10;;;;;;5093222;28;20175;-83
2021/10/21 12:08:20;;;;;;;5.73;1.87;;;11.70;97.10;;;;;;5087558;28;20174;-84
2021/10/21 12:10:46;;;;;;;7.53;1.70;;;11.80;97.70;;;;;;5111770;28;20680;-83
2021/10/21 12:13:26;;;;;;;4.83;1.67;;;11.90;97.60;;;;;;5094690;28;20164;-83
2021/10/21 12:15:55;;;;;;;6.00;1.77;;;12.00;95.20;;;;;;5100253;28;20205;-82
2021/10/21 12:18:22;;;;;;;6.10;1.93;;;12.10;95.40;;;;;;5099788;28;20233;-84
2021/10/21 12:20:55;;;;;;;8.30;1.63;;;12.30;94.90;;;;;;5104848;28;20175;-85
2021/10/21 12:23:31;;;;;;;4.20;1.23;;;12.20;92.70;;;;;;5096358;28;20186;-83
2021/10/21 12:26:05;;;;;;;7.70;2.10;;;12.30;90.60;;;;;;5075610;28;20179;-83
2021/10/21 12:28:46;;;;;;;5.83;1.30;;;12.30;88.30;;;;;;5074577;28;20175;-81
2021/10/21 12:31:33;;;;;;;7.10;2.17;;;12.20;81.80;;;;;;5074714;28;20180;-83
2021/10/21 12:34:01;;;;;;;5.87;1.70;;;12.20;85.80;;;;;;5109634;28;20171;-84
2021/10/21 12:36:28;;;;;;;13.63;2.47;;;12.60;84.50;;;;;;5094941;28;20207;-83
2021/10/21 12:39:01;;;;;;;5.43;1.60;;;12.40;80.90;;;;;;5094391;28;20160;-84
2021/10/21 12:42:04;;;;;;;4.83;1.40;;;12.30;77.70;;;;;;5112733;28;20171;-84
2021/10/21 12:44:40;;;;;;;8.53;1.70;;;12.20;75.20;;;;;;5094708;28;20170;-82
2021/10/21 12:47:28;;;;;;;3.50;1.13;;;12.20;58.60;;;;;;5112619;28;20242;-85
2021/10/21 12:50:11;;;;;;;5.53;1.73;;;12.20;56.90;;;;;;5093985;28;20167;-84
2021/10/21 12:52:40;;;;;;;6.93;1.77;;;12.20;63.10;;;;;;5073770;28;20596;-84
2021/10/21 12:55:29;;;;;;;3.67;1.17;;;12.20;64.30;;;;;;5093796;28;20189;-83
2021/10/21 12:58:02;;;;;;;6.80;1.70;;;12.10;63.80;;;;;;5094174;28;20171;-83
2021/10/21 13:00:29;;;;;;;10.37;2.03;;;12.20;69.90;;;;;;5096012;28;20172;-83
2021/10/21 13:03:18;;;;;;;4.93;1.57;;;12.50;67.40;;;;;;5095315;28;20191;-83